Yasa Emirhan — V7OC3 — position and weather

sailwx.info

Track history (hours):
 
Tides and Currents Weather Stations Pressure Air Temp Water Temp Dewpoint Dewpoint Depression Visibility Wind Speed Wind Dir Waves Ship Positions

Yasa Emirhan

Last reported at 2018-Feb-22 10:59 UTC. Time now 2018-Feb-24 20:08 UTC.
Position N 16°08' W 062°56'.

Length 190 m; draft 11.9 m.

Type: Cargo ship. MMSI: 538003057.

Date/timePositionNaut miles runAvg speedWind from/ knotsBaromVisibWave heightAir tempDewpointWater temp
2018-Feb-22 10:59N 16°08' W 062°56'612.7
2018-Feb-22 10:30N 16°10' W 062°50'712.6
2018-Feb-22 09:59N 16°12' W 062°43'812.5
2018-Feb-22 09:21N 16°15' W 062°36'512.5
2018-Feb-22 08:59N 16°17' W 062°31'612.7
2018-Feb-22 08:30N 16°19' W 062°25'612.9
2018-Feb-22 08:00N 16°21' W 062°19'713.2
2018-Feb-22 07:30N 16°23' W 062°12'613.0
2018-Feb-22 07:00N 16°26' W 062°06'612.5
2018-Feb-22 06:30N 16°28' W 062°00'612.2
2018-Feb-22 06:00N 16°31' W 061°55'611.8
2018-Feb-22 05:30N 16°34' W 061°49'611.7
2018-Feb-22 05:00N 16°36' W 061°43'611.7
2018-Feb-22 04:30N 16°38' W 061°38'611.9
2018-Feb-22 04:00N 16°40' W 061°32'612.0
2018-Feb-22 03:30N 16°43' W 061°26'612.0
2018-Feb-22 03:00N 16°45' W 061°20'612.5
2018-Feb-22 02:30N 16°47' W 061°14'712.6
2018-Feb-22 01:59N 16°50' W 061°08'612.3
2018-Feb-22 01:30N 16°52' W 061°02'612.1
2018-Feb-22 01:00N 16°54' W 060°56'  
Track history (hours):
 
Tides and Currents Weather Stations Pressure Air Temp Water Temp Dewpoint Dewpoint Depression Visibility Wind Speed Wind Dir Waves Ship Positions

Yasa Emirhan

Last reported at 2018-Feb-22 10:59 UTC. Time now 2018-Feb-24 20:08 UTC.
Position N 16°08' W 062°56'.

Length 190 m; draft 11.9 m.

Type: Cargo ship. MMSI: 538003057.

Date/timePositionNaut miles runAvg speedWind from/ knotsBaromVisibWave heightAir tempDewpointWater temp
2018-Feb-22 10:59N 16°08' W 062°56'612.7
2018-Feb-22 10:30N 16°10' W 062°50'712.6
2018-Feb-22 09:59N 16°12' W 062°43'812.5
2018-Feb-22 09:21N 16°15' W 062°36'512.5
2018-Feb-22 08:59N 16°17' W 062°31'612.7
2018-Feb-22 08:30N 16°19' W 062°25'612.9
2018-Feb-22 08:00N 16°21' W 062°19'713.2
2018-Feb-22 07:30N 16°23' W 062°12'613.0
2018-Feb-22 07:00N 16°26' W 062°06'612.5
2018-Feb-22 06:30N 16°28' W 062°00'612.2
2018-Feb-22 06:00N 16°31' W 061°55'611.8
2018-Feb-22 05:30N 16°34' W 061°49'611.7
2018-Feb-22 05:00N 16°36' W 061°43'611.7
2018-Feb-22 04:30N 16°38' W 061°38'611.9
2018-Feb-22 04:00N 16°40' W 061°32'612.0
2018-Feb-22 03:30N 16°43' W 061°26'612.0
2018-Feb-22 03:00N 16°45' W 061°20'612.5
2018-Feb-22 02:30N 16°47' W 061°14'712.6
2018-Feb-22 01:59N 16°50' W 061°08'612.3
2018-Feb-22 01:30N 16°52' W 061°02'612.1
2018-Feb-22 01:00N 16°54' W 060°56'  

Dump ship's entire track history